sensor_id;sensor_type;location;lat;lon;timestamp;temperature;humidity
25092;DHT22;13082;52.374;4.946;2023-03-16T00:00:46;6.90;99.90
25092;DHT22;13082;52.374;4.946;2023-03-16T00:03:12;6.90;99.90
25092;DHT22;13082;52.374;4.946;2023-03-16T00:05:50;6.90;99.90
25092;DHT22;13082;52.374;4.946;2023-03-16T00:08:16;6.80;99.90
25092;DHT22;13082;52.374;4.946;2023-03-16T00:10:43;6.80;99.90
25092;DHT22;13082;52.374;4.946;2023-03-16T00:13:17;6.80;99.90
25092;DHT22;13082;52.374;4.946;2023-03-16T00:15:55;6.70;99.90
25092;DHT22;13082;52.374;4.946;2023-03-16T00:18:22;6.70;99.90
25092;DHT22;13082;52.374;4.946;2023-03-16T00:20:53;6.70;99.90
25092;DHT22;13082;52.374;4.946;2023-03-16T00:23:20;6.70;99.90
25092;DHT22;13082;52.374;4.946;2023-03-16T00:25:56;6.80;99.90
25092;DHT22;13082;52.374;4.946;2023-03-16T00:28:23;6.90;99.90
25092;DHT22;13082;52.374;4.946;2023-03-16T00:30:49;6.90;99.90
25092;DHT22;13082;52.374;4.946;2023-03-16T00:33:15;6.90;99.90
25092;DHT22;13082;52.374;4.946;2023-03-16T00:35:46;6.90;99.90
25092;DHT22;13082;52.374;4.946;2023-03-16T00:38:16;6.90;99.90
25092;DHT22;13082;52.374;4.946;2023-03-16T00:40:43;6.90;99.90
25092;DHT22;13082;52.374;4.946;2023-03-16T00:43:09;7.00;99.90
25092;DHT22;13082;52.374;4.946;2023-03-16T00:45:35;6.90;99.90
25092;DHT22;13082;52.374;4.946;2023-03-16T00:48:01;6.90;99.90
25092;DHT22;13082;52.374;4.946;2023-03-16T00:50:27;7.00;99.90
25092;DHT22;13082;52.374;4.946;2023-03-16T00:52:52;7.00;99.90
25092;DHT22;13082;52.374;4.946;2023-03-16T00:55:19;7.00;99.90
25092;DHT22;13082;52.374;4.946;2023-03-16T00:57:45;7.00;99.90
25092;DHT22;13082;52.374;4.946;2023-03-16T01:00:11;7.00;99.90
25092;DHT22;13082;52.374;4.946;2023-03-16T01:02:37;6.90;99.90
25092;DHT22;13082;52.374;4.946;2023-03-16T01:05:03;7.00;99.90
25092;DHT22;13082;52.374;4.946;2023-03-16T01:07:30;6.90;99.90
25092;DHT22;13082;52.374;4.946;2023-03-16T01:09:56;7.00;99.90
25092;DHT22;13082;52.374;4.946;2023-03-16T01:12:22;7.10;99.90
25092;DHT22;13082;52.374;4.946;2023-03-16T01:14:48;7.00;99.90
25092;DHT22;13082;52.374;4.946;2023-03-16T01:17:15;7.00;99.90
25092;DHT22;13082;52.374;4.946;2023-03-16T01:19:41;7.00;99.90
25092;DHT22;13082;52.374;4.946;2023-03-16T01:22:08;7.00;99.90
25092;DHT22;13082;52.374;4.946;2023-03-16T01:24:34;7.00;99.90
25092;DHT22;13082;52.374;4.946;2023-03-16T01:27:00;7.00;99.90
25092;DHT22;13082;52.374;4.946;2023-03-16T01:29:26;7.10;99.90
25092;DHT22;13082;52.374;4.946;2023-03-16T01:31:52;7.10;99.90
25092;DHT22;13082;52.374;4.946;2023-03-16T01:34:18;7.00;99.90
25092;DHT22;13082;52.374;4.946;2023-03-16T01:36:46;7.10;99.90
25092;DHT22;13082;52.374;4.946;2023-03-16T01:39:13;7.10;99.90
25092;DHT22;13082;52.374;4.946;2023-03-16T01:41:39;7.10;99.90
25092;DHT22;13082;52.374;4.946;2023-03-16T01:44:09;7.10;99.90
25092;DHT22;13082;52.374;4.946;2023-03-16T01:46:35;7.10;99.90
25092;DHT22;13082;52.374;4.946;2023-03-16T01:49:13;7.10;99.90
25092;DHT22;13082;52.374;4.946;2023-03-16T01:51:47;7.10;99.90
25092;DHT22;13082;52.374;4.946;2023-03-16T01:54:30;7.10;99.90
25092;DHT22;13082;52.374;4.946;2023-03-16T01:57:14;7.10;99.90
25092;DHT22;13082;52.374;4.946;2023-03-16T02:02:14;7.10;99.90
25092;DHT22;13082;52.374;4.946;2023-03-16T02:05:00;7.10;99.90
25092;DHT22;13082;52.374;4.946;2023-03-16T02:07:28;7.10;99.90
25092;DHT22;13082;52.374;4.946;2023-03-16T02:09:57;7.10;99.90
25092;DHT22;13082;52.374;4.946;2023-03-16T02:12:24;7.00;99.90
25092;DHT22;13082;52.374;4.946;2023-03-16T02:14:51;7.00;99.90
25092;DHT22;13082;52.374;4.946;2023-03-16T02:17:20;7.10;99.90
25092;DHT22;13082;52.374;4.946;2023-03-16T02:22:34;7.10;99.90
25092;DHT22;13082;52.374;4.946;2023-03-16T02:25:01;7.10;99.90
25092;DHT22;13082;52.374;4.946;2023-03-16T02:27:44;7.10;99.90
25092;DHT22;13082;52.374;4.946;2023-03-16T02:30:14;7.10;99.90
25092;DHT22;13082;52.374;4.946;2023-03-16T02:32:40;7.10;99.90
25092;DHT22;13082;52.374;4.946;2023-03-16T02:35:07;7.10;99.90
25092;DHT22;13082;52.374;4.946;2023-03-16T02:37:33;7.10;99.90
25092;DHT22;13082;52.374;4.946;2023-03-16T02:40:00;7.00;99.90
25092;DHT22;13082;52.374;4.946;2023-03-16T02:42:27;7.00;99.90
25092;DHT22;13082;52.374;4.946;2023-03-16T02:44:56;7.00;99.90
25092;DHT22;13082;52.374;4.946;2023-03-16T02:47:40;7.00;99.90
25092;DHT22;13082;52.374;4.946;2023-03-16T02:50:08;7.00;99.90
25092;DHT22;13082;52.374;4.946;2023-03-16T02:52:35;7.00;99.90
25092;DHT22;13082;52.374;4.946;2023-03-16T02:55:02;7.00;99.90
25092;DHT22;13082;52.374;4.946;2023-03-16T02:57:28;7.00;99.90
25092;DHT22;13082;52.374;4.946;2023-03-16T02:59:54;7.00;99.90
25092;DHT22;13082;52.374;4.946;2023-03-16T03:02:19;7.10;99.90
25092;DHT22;13082;52.374;4.946;2023-03-16T03:04:45;7.00;99.90
25092;DHT22;13082;52.374;4.946;2023-03-16T03:07:12;7.00;99.90
25092;DHT22;13082;52.374;4.946;2023-03-16T03:09:39;7.00;99.90
25092;DHT22;13082;52.374;4.946;2023-03-16T03:12:08;7.00;99.90
25092;DHT22;13082;52.374;4.946;2023-03-16T03:14:34;6.90;99.90
25092;DHT22;13082;52.374;4.946;2023-03-16T03:17:03;6.90;99.90
25092;DHT22;13082;52.374;4.946;2023-03-16T03:19:29;6.90;99.90
25092;DHT22;13082;52.374;4.946;2023-03-16T03:21:55;6.80;99.90
25092;DHT22;13082;52.374;4.946;2023-03-16T03:24:22;6.80;99.90
25092;DHT22;13082;52.374;4.946;2023-03-16T03:26:47;6.80;99.90
25092;DHT22;13082;52.374;4.946;2023-03-16T03:29:13;6.80;99.90
25092;DHT22;13082;52.374;4.946;2023-03-16T03:31:38;6.70;99.90
25092;DHT22;13082;52.374;4.946;2023-03-16T03:34:04;6.70;99.90
25092;DHT22;13082;52.374;4.946;2023-03-16T03:36:32;6.60;99.90
25092;DHT22;13082;52.374;4.946;2023-03-16T03:38:57;6.60;99.90
25092;DHT22;13082;52.374;4.946;2023-03-16T03:41:23;6.60;99.90
25092;DHT22;13082;52.374;4.946;2023-03-16T03:43:49;6.60;99.90
25092;DHT22;13082;52.374;4.946;2023-03-16T03:46:14;6.60;99.90
25092;DHT22;13082;52.374;4.946;2023-03-16T03:48:40;6.60;99.90
25092;DHT22;13082;52.374;4.946;2023-03-16T03:51:05;6.60;99.90
25092;DHT22;13082;52.374;4.946;2023-03-16T03:53:31;6.60;99.90
25092;DHT22;13082;52.374;4.946;2023-03-16T03:55:57;6.60;99.90
25092;DHT22;13082;52.374;4.946;2023-03-16T03:58:22;6.60;99.90
25092;DHT22;13082;52.374;4.946;2023-03-16T04:00:48;6.60;99.90
25092;DHT22;13082;52.374;4.946;2023-03-16T04:03:14;6.60;99.90
25092;DHT22;13082;52.374;4.946;2023-03-16T04:05:40;6.60;99.90
25092;DHT22;13082;52.374;4.946;2023-03-16T04:08:06;6.60;99.90
25092;DHT22;13082;52.374;4.946;2023-03-16T04:10:31;6.60;99.90
25092;DHT22;13082;52.374;4.946;2023-03-16T04:12:58;6.70;99.90
25092;DHT22;13082;52.374;4.946;2023-03-16T04:15:24;6.60;99.90
25092;DHT22;13082;52.374;4.946;2023-03-16T04:17:51;6.60;99.90
25092;DHT22;13082;52.374;4.946;2023-03-16T04:20:19;6.60;99.90
25092;DHT22;13082;52.374;4.946;2023-03-16T04:22:46;6.70;99.90
25092;DHT22;13082;52.374;4.946;2023-03-16T04:25:14;6.60;99.90
25092;DHT22;13082;52.374;4.946;2023-03-16T04:27:40;6.70;99.90
25092;DHT22;13082;52.374;4.946;2023-03-16T04:30:09;6.70;99.90
25092;DHT22;13082;52.374;4.946;2023-03-16T04:32:36;6.70;99.90
25092;DHT22;13082;52.374;4.946;2023-03-16T04:35:02;6.70;99.90
25092;DHT22;13082;52.374;4.946;2023-03-16T04:37:27;6.60;99.90
25092;DHT22;13082;52.374;4.946;2023-03-16T04:39:53;6.60;99.90
25092;DHT22;13082;52.374;4.946;2023-03-16T04:42:19;6.60;99.90
25092;DHT22;13082;52.374;4.946;2023-03-16T04:44:44;6.70;99.90
25092;DHT22;13082;52.374;4.946;2023-03-16T04:47:11;6.70;99.90
25092;DHT22;13082;52.374;4.946;2023-03-16T04:49:36;6.80;99.90
25092;DHT22;13082;52.374;4.946;2023-03-16T04:52:02;6.80;99.90
25092;DHT22;13082;52.374;4.946;2023-03-16T04:54:29;6.70;99.90
25092;DHT22;13082;52.374;4.946;2023-03-16T04:56:55;6.70;99.90
25092;DHT22;13082;52.374;4.946;2023-03-16T04:59:20;6.80;99.90
25092;DHT22;13082;52.374;4.946;2023-03-16T05:01:46;6.80;99.90
25092;DHT22;13082;52.374;4.946;2023-03-16T05:04:12;6.70;99.90
25092;DHT22;13082;52.374;4.946;2023-03-16T05:06:38;6.70;99.90
25092;DHT22;13082;52.374;4.946;2023-03-16T05:09:04;6.70;99.90
25092;DHT22;13082;52.374;4.946;2023-03-16T05:11:32;6.70;99.90
25092;DHT22;13082;52.374;4.946;2023-03-16T05:13:57;6.70;99.90
25092;DHT22;13082;52.374;4.946;2023-03-16T05:16:23;6.70;99.90
25092;DHT22;13082;52.374;4.946;2023-03-16T05:18:49;6.60;99.90
25092;DHT22;13082;52.374;4.946;2023-03-16T05:21:14;6.70;99.90
25092;DHT22;13082;52.374;4.946;2023-03-16T05:23:41;6.60;99.90
25092;DHT22;13082;52.374;4.946;2023-03-16T05:26:06;6.70;99.90
25092;DHT22;13082;52.374;4.946;2023-03-16T05:28:32;6.70;99.90
25092;DHT22;13082;52.374;4.946;2023-03-16T05:30:58;6.70;99.90
25092;DHT22;13082;52.374;4.946;2023-03-16T05:33:24;6.70;99.90
25092;DHT22;13082;52.374;4.946;2023-03-16T05:35:50;6.70;99.90
25092;DHT22;13082;52.374;4.946;2023-03-16T05:38:16;6.60;99.90
25092;DHT22;13082;52.374;4.946;2023-03-16T05:40:42;6.60;99.90
25092;DHT22;13082;52.374;4.946;2023-03-16T05:43:08;6.60;99.90
25092;DHT22;13082;52.374;4.946;2023-03-16T05:45:33;6.60;99.90
25092;DHT22;13082;52.374;4.946;2023-03-16T05:47:59;6.60;99.90
25092;DHT22;13082;52.374;4.946;2023-03-16T05:50:25;6.50;99.90
25092;DHT22;13082;52.374;4.946;2023-03-16T05:52:50;6.40;99.90
25092;DHT22;13082;52.374;4.946;2023-03-16T05:55:17;6.50;99.90
25092;DHT22;13082;52.374;4.946;2023-03-16T05:57:42;6.50;99.90
25092;DHT22;13082;52.374;4.946;2023-03-16T06:00:10;6.50;99.90
25092;DHT22;13082;52.374;4.946;2023-03-16T06:02:39;6.50;99.90
25092;DHT22;13082;52.374;4.946;2023-03-16T06:05:06;6.50;99.90
25092;DHT22;13082;52.374;4.946;2023-03-16T06:07:32;6.50;99.90
25092;DHT22;13082;52.374;4.946;2023-03-16T06:09:58;6.60;99.90
25092;DHT22;13082;52.374;4.946;2023-03-16T06:12:23;6.50;99.90
25092;DHT22;13082;52.374;4.946;2023-03-16T06:14:49;6.50;99.90
25092;DHT22;13082;52.374;4.946;2023-03-16T06:17:15;6.50;99.90
25092;DHT22;13082;52.374;4.946;2023-03-16T06:19:40;6.40;99.90
25092;DHT22;13082;52.374;4.946;2023-03-16T06:22:06;6.40;99.90
25092;DHT22;13082;52.374;4.946;2023-03-16T06:24:33;6.40;99.90
25092;DHT22;13082;52.374;4.946;2023-03-16T06:26:58;6.40;99.90
25092;DHT22;13082;52.374;4.946;2023-03-16T06:29:24;6.40;99.90
25092;DHT22;13082;52.374;4.946;2023-03-16T06:31:50;6.40;99.90
25092;DHT22;13082;52.374;4.946;2023-03-16T06:34:17;6.40;99.90
25092;DHT22;13082;52.374;4.946;2023-03-16T06:36:43;6.40;99.90
25092;DHT22;13082;52.374;4.946;2023-03-16T06:39:12;6.50;99.90
25092;DHT22;13082;52.374;4.946;2023-03-16T06:41:42;6.50;99.90
25092;DHT22;13082;52.374;4.946;2023-03-16T06:44:11;6.50;99.90
25092;DHT22;13082;52.374;4.946;2023-03-16T06:46:37;6.50;99.90
25092;DHT22;13082;52.374;4.946;2023-03-16T06:49:03;6.50;99.90
25092;DHT22;13082;52.374;4.946;2023-03-16T06:51:29;6.50;99.90
25092;DHT22;13082;52.374;4.946;2023-03-16T06:54:01;6.50;99.90
25092;DHT22;13082;52.374;4.946;2023-03-16T06:56:26;6.60;99.90
25092;DHT22;13082;52.374;4.946;2023-03-16T06:58:52;6.60;99.90
25092;DHT22;13082;52.374;4.946;2023-03-16T07:01:19;6.70;99.90
25092;DHT22;13082;52.374;4.946;2023-03-16T07:03:45;6.70;99.90
25092;DHT22;13082;52.374;4.946;2023-03-16T07:06:10;6.70;99.90
25092;DHT22;13082;52.374;4.946;2023-03-16T07:08:36;6.80;99.90
25092;DHT22;13082;52.374;4.946;2023-03-16T07:11:02;6.90;99.90
25092;DHT22;13082;52.374;4.946;2023-03-16T07:13:27;6.90;99.90
25092;DHT22;13082;52.374;4.946;2023-03-16T07:15:53;6.90;99.90
25092;DHT22;13082;52.374;4.946;2023-03-16T07:18:19;7.00;99.90
25092;DHT22;13082;52.374;4.946;2023-03-16T07:20:45;7.00;99.90
25092;DHT22;13082;52.374;4.946;2023-03-16T07:23:11;7.00;99.90
25092;DHT22;13082;52.374;4.946;2023-03-16T07:25:37;7.00;99.90
25092;DHT22;13082;52.374;4.946;2023-03-16T07:28:02;7.00;99.90
25092;DHT22;13082;52.374;4.946;2023-03-16T07:30:28;7.10;99.90
25092;DHT22;13082;52.374;4.946;2023-03-16T07:32:54;7.00;99.90
25092;DHT22;13082;52.374;4.946;2023-03-16T07:35:19;7.10;99.90
25092;DHT22;13082;52.374;4.946;2023-03-16T07:37:46;7.00;99.90
25092;DHT22;13082;52.374;4.946;2023-03-16T07:40:12;7.00;99.90
25092;DHT22;13082;52.374;4.946;2023-03-16T07:42:39;7.00;99.90
25092;DHT22;13082;52.374;4.946;2023-03-16T07:45:06;7.00;99.90
25092;DHT22;13082;52.374;4.946;2023-03-16T07:47:32;7.00;99.90
25092;DHT22;13082;52.374;4.946;2023-03-16T07:49:58;7.00;99.90
25092;DHT22;13082;52.374;4.946;2023-03-16T07:52:24;7.00;99.90
25092;DHT22;13082;52.374;4.946;2023-03-16T07:54:50;7.00;99.90
25092;DHT22;13082;52.374;4.946;2023-03-16T07:57:15;7.00;99.90
25092;DHT22;13082;52.374;4.946;2023-03-16T07:59:41;7.00;99.90
25092;DHT22;13082;52.374;4.946;2023-03-16T08:02:16;7.10;99.90
25092;DHT22;13082;52.374;4.946;2023-03-16T08:04:42;7.10;99.90
25092;DHT22;13082;52.374;4.946;2023-03-16T08:07:12;7.20;99.90
25092;DHT22;13082;52.374;4.946;2023-03-16T08:09:39;7.20;99.90
25092;DHT22;13082;52.374;4.946;2023-03-16T08:12:06;7.20;99.90
25092;DHT22;13082;52.374;4.946;2023-03-16T08:14:32;7.20;99.90
25092;DHT22;13082;52.374;4.946;2023-03-16T08:17:02;7.20;99.90
25092;DHT22;13082;52.374;4.946;2023-03-16T08:19:29;7.30;99.90
25092;DHT22;13082;52.374;4.946;2023-03-16T08:21:55;7.30;99.90
25092;DHT22;13082;52.374;4.946;2023-03-16T08:24:21;7.30;99.90
25092;DHT22;13082;52.374;4.946;2023-03-16T08:26:47;7.40;99.90
25092;DHT22;13082;52.374;4.946;2023-03-16T08:29:13;7.40;99.90
25092;DHT22;13082;52.374;4.946;2023-03-16T08:31:38;7.50;99.90
25092;DHT22;13082;52.374;4.946;2023-03-16T08:34:04;7.50;99.90
25092;DHT22;13082;52.374;4.946;2023-03-16T08:36:30;7.50;99.90
25092;DHT22;13082;52.374;4.946;2023-03-16T08:38:56;7.50;99.90
25092;DHT22;13082;52.374;4.946;2023-03-16T08:41:22;7.60;99.90
25092;DHT22;13082;52.374;4.946;2023-03-16T08:43:48;7.60;99.90
25092;DHT22;13082;52.374;4.946;2023-03-16T08:46:14;7.60;99.90
25092;DHT22;13082;52.374;4.946;2023-03-16T08:48:40;7.60;99.90
25092;DHT22;13082;52.374;4.946;2023-03-16T08:51:08;7.60;99.90
25092;DHT22;13082;52.374;4.946;2023-03-16T08:53:34;7.60;99.90
25092;DHT22;13082;52.374;4.946;2023-03-16T08:56:09;7.60;99.90
25092;DHT22;13082;52.374;4.946;2023-03-16T08:58:35;7.60;99.90
25092;DHT22;13082;52.374;4.946;2023-03-16T09:01:03;7.70;99.90
25092;DHT22;13082;52.374;4.946;2023-03-16T09:03:31;7.80;99.90
25092;DHT22;13082;52.374;4.946;2023-03-16T09:06:01;7.80;99.90
25092;DHT22;13082;52.374;4.946;2023-03-16T09:08:28;7.80;99.90
25092;DHT22;13082;52.374;4.946;2023-03-16T09:11:01;7.80;99.90
25092;DHT22;13082;52.374;4.946;2023-03-16T09:13:28;7.90;99.90
25092;DHT22;13082;52.374;4.946;2023-03-16T09:15:55;7.90;99.90
25092;DHT22;13082;52.374;4.946;2023-03-16T09:18:21;7.90;99.90
25092;DHT22;13082;52.374;4.946;2023-03-16T09:20:48;7.90;99.90
25092;DHT22;13082;52.374;4.946;2023-03-16T09:23:14;7.90;99.90
25092;DHT22;13082;52.374;4.946;2023-03-16T09:25:40;8.00;99.90
25092;DHT22;13082;52.374;4.946;2023-03-16T09:28:05;8.00;99.90
25092;DHT22;13082;52.374;4.946;2023-03-16T09:30:31;8.00;99.90
25092;DHT22;13082;52.374;4.946;2023-03-16T09:32:57;8.00;99.90
25092;DHT22;13082;52.374;4.946;2023-03-16T09:35:24;8.00;99.90
25092;DHT22;13082;52.374;4.946;2023-03-16T09:37:50;8.10;99.90
25092;DHT22;13082;52.374;4.946;2023-03-16T09:40:24;8.20;99.90
25092;DHT22;13082;52.374;4.946;2023-03-16T09:43:28;8.20;99.90
25092;DHT22;13082;52.374;4.946;2023-03-16T09:46:20;8.30;99.90
25092;DHT22;13082;52.374;4.946;2023-03-16T09:48:48;8.50;99.90
25092;DHT22;13082;52.374;4.946;2023-03-16T09:51:22;8.60;99.90
25092;DHT22;13082;52.374;4.946;2023-03-16T09:53:57;8.70;99.90
25092;DHT22;13082;52.374;4.946;2023-03-16T09:56:34;8.80;99.90
25092;DHT22;13082;52.374;4.946;2023-03-16T09:59:09;9.00;99.90
25092;DHT22;13082;52.374;4.946;2023-03-16T10:09:56;9.40;99.90
25092;DHT22;13082;52.374;4.946;2023-03-16T10:12:25;9.40;99.90
25092;DHT22;13082;52.374;4.946;2023-03-16T10:17:45;9.60;99.90
25092;DHT22;13082;52.374;4.946;2023-03-16T10:20:17;9.70;99.90
25092;DHT22;13082;52.374;4.946;2023-03-16T10:22:45;9.70;99.90
25092;DHT22;13082;52.374;4.946;2023-03-16T10:25:38;9.60;99.90
25092;DHT22;13082;52.374;4.946;2023-03-16T10:28:06;9.70;99.90
25092;DHT22;13082;52.374;4.946;2023-03-16T10:30:34;9.70;99.90
25092;DHT22;13082;52.374;4.946;2023-03-16T10:38:50;9.90;99.90
25092;DHT22;13082;52.374;4.946;2023-03-16T10:43:43;10.10;99.90
25092;DHT22;13082;52.374;4.946;2023-03-16T10:46:10;10.00;99.90
25092;DHT22;13082;52.374;4.946;2023-03-16T10:48:37;9.90;99.90
25092;DHT22;13082;52.374;4.946;2023-03-16T10:51:07;9.90;99.90
25092;DHT22;13082;52.374;4.946;2023-03-16T10:53:41;10.00;99.90
25092;DHT22;13082;52.374;4.946;2023-03-16T10:56:11;10.00;99.90
25092;DHT22;13082;52.374;4.946;2023-03-16T10:58:40;10.00;99.90
25092;DHT22;13082;52.374;4.946;2023-03-16T11:01:26;10.00;99.90
25092;DHT22;13082;52.374;4.946;2023-03-16T11:03:54;10.00;99.90
25092;DHT22;13082;52.374;4.946;2023-03-16T11:06:29;10.00;99.90
25092;DHT22;13082;52.374;4.946;2023-03-16T11:09:22;10.00;99.90
25092;DHT22;13082;52.374;4.946;2023-03-16T11:11:50;10.00;99.90
25092;DHT22;13082;52.374;4.946;2023-03-16T11:14:20;10.00;99.90
25092;DHT22;13082;52.374;4.946;2023-03-16T11:16:58;10.00;99.90
25092;DHT22;13082;52.374;4.946;2023-03-16T11:19:28;10.10;99.90
25092;DHT22;13082;52.374;4.946;2023-03-16T11:27:03;10.10;99.90
25092;DHT22;13082;52.374;4.946;2023-03-16T11:32:21;10.20;99.90
25092;DHT22;13082;52.374;4.946;2023-03-16T11:34:49;10.30;99.90
25092;DHT22;13082;52.374;4.946;2023-03-16T11:45:46;10.50;99.90
25092;DHT22;13082;52.374;4.946;2023-03-16T11:48:26;10.50;99.90
25092;DHT22;13082;52.374;4.946;2023-03-16T11:54:38;10.60;99.90
25092;DHT22;13082;52.374;4.946;2023-03-16T11:57:00;10.70;99.90
25092;DHT22;13082;52.374;4.946;2023-03-16T11:59:51;10.70;99.90
25092;DHT22;13082;52.374;4.946;2023-03-16T12:05:21;10.80;99.90
25092;DHT22;13082;52.374;4.946;2023-03-16T12:10:25;10.90;99.90
25092;DHT22;13082;52.374;4.946;2023-03-16T12:18:35;11.00;99.90
25092;DHT22;13082;52.374;4.946;2023-03-16T12:21:24;11.10;99.90
25092;DHT22;13082;52.374;4.946;2023-03-16T12:23:53;11.10;99.90
25092;DHT22;13082;52.374;4.946;2023-03-16T12:26:23;11.10;99.90
25092;DHT22;13082;52.374;4.946;2023-03-16T12:28:50;11.20;99.90
25092;DHT22;13082;52.374;4.946;2023-03-16T12:34:35;11.30;99.90
25092;DHT22;13082;52.374;4.946;2023-03-16T12:37:07;11.40;99.90
25092;DHT22;13082;52.374;4.946;2023-03-16T12:39:41;11.50;99.90
25092;DHT22;13082;52.374;4.946;2023-03-16T12:42:20;11.60;99.90
25092;DHT22;13082;52.374;4.946;2023-03-16T12:50:30;12.00;99.90
25092;DHT22;13082;52.374;4.946;2023-03-16T12:52:57;12.00;99.90
25092;DHT22;13082;52.374;4.946;2023-03-16T12:55:26;12.10;99.90
25092;DHT22;13082;52.374;4.946;2023-03-16T12:58:06;12.10;99.90
25092;DHT22;13082;52.374;4.946;2023-03-16T13:00:35;12.10;99.90
25092;DHT22;13082;52.374;4.946;2023-03-16T13:03:03;12.10;99.90
25092;DHT22;13082;52.374;4.946;2023-03-16T13:05:36;12.10;99.90
25092;DHT22;13082;52.374;4.946;2023-03-16T13:08:15;12.20;99.90
25092;DHT22;13082;52.374;4.946;2023-03-16T13:10:43;12.10;99.90
25092;DHT22;13082;52.374;4.946;2023-03-16T13:13:23;12.20;99.90
25092;DHT22;13082;52.374;4.946;2023-03-16T13:16:02;12.10;99.90
25092;DHT22;13082;52.374;4.946;2023-03-16T13:18:38;12.20;99.90
25092;DHT22;13082;52.374;4.946;2023-03-16T13:21:18;12.30;99.90
25092;DHT22;13082;52.374;4.946;2023-03-16T13:23:58;12.40;99.90
25092;DHT22;13082;52.374;4.946;2023-03-16T13:26:49;12.40;99.90
25092;DHT22;13082;52.374;4.946;2023-03-16T13:29:27;12.40;99.90
25092;DHT22;13082;52.374;4.946;2023-03-16T13:31:56;12.40;99.90
25092;DHT22;13082;52.374;4.946;2023-03-16T13:34:29;12.40;99.90
25092;DHT22;13082;52.374;4.946;2023-03-16T13:36:57;12.40;99.90
25092;DHT22;13082;52.374;4.946;2023-03-16T13:39:25;12.50;99.90
25092;DHT22;13082;52.374;4.946;2023-03-16T13:42:01;12.60;99.90
25092;DHT22;13082;52.374;4.946;2023-03-16T13:44:29;12.60;99.90
25092;DHT22;13082;52.374;4.946;2023-03-16T13:46:56;12.70;99.90
25092;DHT22;13082;52.374;4.946;2023-03-16T13:49:22;12.70;99.90
25092;DHT22;13082;52.374;4.946;2023-03-16T13:51:48;12.70;99.90
25092;DHT22;13082;52.374;4.946;2023-03-16T13:54:26;12.80;99.90
25092;DHT22;13082;52.374;4.946;2023-03-16T13:56:58;12.80;99.90
25092;DHT22;13082;52.374;4.946;2023-03-16T13:59:24;12.90;99.90
25092;DHT22;13082;52.374;4.946;2023-03-16T14:01:55;13.00;99.90
25092;DHT22;13082;52.374;4.946;2023-03-16T14:04:27;13.00;99.90
25092;DHT22;13082;52.374;4.946;2023-03-16T14:06:58;13.00;99.90
25092;DHT22;13082;52.374;4.946;2023-03-16T14:09:27;13.00;99.90
25092;DHT22;13082;52.374;4.946;2023-03-16T14:11:54;13.00;99.90
25092;DHT22;13082;52.374;4.946;2023-03-16T14:14:36;13.10;99.90
25092;DHT22;13082;52.374;4.946;2023-03-16T14:17:15;13.00;99.90
25092;DHT22;13082;52.374;4.946;2023-03-16T14:19:48;13.10;99.90
25092;DHT22;13082;52.374;4.946;2023-03-16T14:22:21;13.10;99.90
25092;DHT22;13082;52.374;4.946;2023-03-16T14:24:53;13.10;99.90
25092;DHT22;13082;52.374;4.946;2023-03-16T14:27:25;13.00;99.90
25092;DHT22;13082;52.374;4.946;2023-03-16T14:29:58;13.00;99.90
25092;DHT22;13082;52.374;4.946;2023-03-16T14:32:27;13.00;99.90
25092;DHT22;13082;52.374;4.946;2023-03-16T14:35:10;13.00;99.90
25092;DHT22;13082;52.374;4.946;2023-03-16T14:37:37;13.00;99.90
25092;DHT22;13082;52.374;4.946;2023-03-16T14:40:27;13.00;99.90
25092;DHT22;13082;52.374;4.946;2023-03-16T14:42:58;13.00;99.90
25092;DHT22;13082;52.374;4.946;2023-03-16T14:45:34;13.00;99.90
25092;DHT22;13082;52.374;4.946;2023-03-16T14:48:13;13.10;99.90
25092;DHT22;13082;52.374;4.946;2023-03-16T14:50:43;13.10;99.90
25092;DHT22;13082;52.374;4.946;2023-03-16T14:53:09;13.20;99.90
25092;DHT22;13082;52.374;4.946;2023-03-16T14:55:35;13.20;99.90
25092;DHT22;13082;52.374;4.946;2023-03-16T14:58:02;13.30;99.90
25092;DHT22;13082;52.374;4.946;2023-03-16T15:00:28;13.30;99.90
25092;DHT22;13082;52.374;4.946;2023-03-16T15:02:59;13.30;99.90
25092;DHT22;13082;52.374;4.946;2023-03-16T15:05:37;13.20;99.90
25092;DHT22;13082;52.374;4.946;2023-03-16T15:08:06;13.30;99.90
25092;DHT22;13082;52.374;4.946;2023-03-16T15:10:35;13.30;99.90
25092;DHT22;13082;52.374;4.946;2023-03-16T15:13:01;13.30;99.90
25092;DHT22;13082;52.374;4.946;2023-03-16T15:15:38;13.40;99.90
25092;DHT22;13082;52.374;4.946;2023-03-16T15:18:07;13.50;99.90
25092;DHT22;13082;52.374;4.946;2023-03-16T15:20:37;13.60;99.90
25092;DHT22;13082;52.374;4.946;2023-03-16T15:23:04;13.60;99.90
25092;DHT22;13082;52.374;4.946;2023-03-16T15:25:38;13.70;99.90
25092;DHT22;13082;52.374;4.946;2023-03-16T15:28:21;13.90;99.90
25092;DHT22;13082;52.374;4.946;2023-03-16T15:30:56;13.90;99.90
25092;DHT22;13082;52.374;4.946;2023-03-16T15:33:23;13.90;99.90
25092;DHT22;13082;52.374;4.946;2023-03-16T15:35:51;13.90;99.90
25092;DHT22;13082;52.374;4.946;2023-03-16T15:38:21;13.90;99.90
25092;DHT22;13082;52.374;4.946;2023-03-16T15:40:47;13.90;99.90
25092;DHT22;13082;52.374;4.946;2023-03-16T15:43:19;13.90;99.90
25092;DHT22;13082;52.374;4.946;2023-03-16T15:45:45;13.90;99.90
25092;DHT22;13082;52.374;4.946;2023-03-16T15:48:12;13.90;99.90
25092;DHT22;13082;52.374;4.946;2023-03-16T15:50:40;13.90;99.90
25092;DHT22;13082;52.374;4.946;2023-03-16T15:53:19;13.80;99.90
25092;DHT22;13082;52.374;4.946;2023-03-16T15:55:50;13.80;99.90
25092;DHT22;13082;52.374;4.946;2023-03-16T15:58:21;13.70;99.90
25092;DHT22;13082;52.374;4.946;2023-03-16T16:00:53;13.70;99.90
25092;DHT22;13082;52.374;4.946;2023-03-16T16:03:20;13.80;99.90
25092;DHT22;13082;52.374;4.946;2023-03-16T16:05:46;13.70;99.90
25092;DHT22;13082;52.374;4.946;2023-03-16T16:08:12;13.70;99.90
25092;DHT22;13082;52.374;4.946;2023-03-16T16:10:39;13.70;99.90
25092;DHT22;13082;52.374;4.946;2023-03-16T16:13:08;13.70;99.90
25092;DHT22;13082;52.374;4.946;2023-03-16T16:15:34;13.70;99.90
25092;DHT22;13082;52.374;4.946;2023-03-16T16:18:08;13.70;99.90
25092;DHT22;13082;52.374;4.946;2023-03-16T16:20:42;13.70;99.90
25092;DHT22;13082;52.374;4.946;2023-03-16T16:23:08;13.70;99.90
25092;DHT22;13082;52.374;4.946;2023-03-16T16:25:37;13.60;99.90
25092;DHT22;13082;52.374;4.946;2023-03-16T16:28:22;13.60;99.90
25092;DHT22;13082;52.374;4.946;2023-03-16T16:30:49;13.60;99.90
25092;DHT22;13082;52.374;4.946;2023-03-16T16:33:23;13.60;99.90
25092;DHT22;13082;52.374;4.946;2023-03-16T16:35:50;13.50;99.90
25092;DHT22;13082;52.374;4.946;2023-03-16T16:38:16;13.60;99.90
25092;DHT22;13082;52.374;4.946;2023-03-16T16:40:41;13.60;99.90
25092;DHT22;13082;52.374;4.946;2023-03-16T16:43:26;13.60;99.90
25092;DHT22;13082;52.374;4.946;2023-03-16T16:45:54;13.60;99.90
25092;DHT22;13082;52.374;4.946;2023-03-16T16:48:27;13.60;99.90
25092;DHT22;13082;52.374;4.946;2023-03-16T16:50:54;13.60;99.90
25092;DHT22;13082;52.374;4.946;2023-03-16T16:53:20;13.60;99.90
25092;DHT22;13082;52.374;4.946;2023-03-16T16:55:45;13.50;99.90